Aérodrome :
LOGIN :

S'inscrire | Disclaimer

   EN    FR    IT 

 










Légende :    VFR   VFR Marginal   IFR   IFR Intensif   IFR Très Intensif
Visi : 
Plafond : 
>= 8 km
>= 3000ft
5 à 8 km
1000 à 3000 ft
1500m à 5 km
500 à 1000 ft
800 à 1500m
200 à 500 ft
< 800m
< 200 ft
Symboles :   Orages  Brouillard  Fortes neiges  Fortes précipitations  Vent > 20 kt
SIGMETs :   Divers  Orages  Givrage  Turbulence  Onde Orograph.  Cendres Volcan.







- Altitude de l'aérodrome : 204 ft
- Code IATA : AGF
- Voir les cartes d'approche


LFBA - Agen

DERNIER METAR :
  • 251100Z AUTO 27006KT 240V310 9999 BKN015 BKN021 BKN072 20/16 Q1020 TEMPO 3000 TSRA BKN010 BKN030CB

METARs EXPIRÉS :
  • 251030Z AUTO 26006KT 220V290 9999 OVC017 19/16 Q1020 TEMPO 3000 TSRA BKN010 BKN030CB
  • 251000Z AUTO 27005KT 230V300 9999 SCT014/// OVC072/// ///TCU 19/16 Q1021 TEMPO 3000 TSRA BKN010 BKN030CB
  • 250930Z AUTO 24006KT 220V280 9999 ///CB 18/15 Q1021 TEMPO 3000 TSRA BKN010 BKN030CB
  • 250900Z AUTO 26004KT 220V300 9999 ///CB 18/15 Q1021 TEMPO 3000 SHRA BKN007 BKN015 BKN035TCU FEW040CB
  • 250830Z AUTO VRB03KT 9999 FEW010/// OVC084/// ///CB 17/15 Q1020 TEMPO 3000 SHRA BKN007 BKN015 BKN035TCU FEW040CB

TAF TAF LFBA
Valide du 25 à 12h jusqu'au 25 à 21h UTC


251100Z 2512/2521 27008KT 9999 BKN015
TEMPO 2512/2516 3000 SHRA BKN007 BKN015 BKN035TCU FEW040CB
PROB30
TEMPO 2512/2515 3000 TSRA BKN010 BKN030CB
Pas de NOTAMs connus pour ce terrain.
2 SIGMETs publiés pour la FIR Bordeaux (LFBB) :
 
Orages noyés dans la masse
LFBB SIGMET 7 VALID 251130/251300 LFPW
LFBB BORDEAUX FIR/UIR EMBD TS OBS WI N4245 E00230 - N4215 E00230 - N4230 E00130 - N4300 E00145 TOP FL340 MOV E 15KT NC=
Orages noyés dans la masse
LFBB SIGMET 6 VALID 251030/251130 LFPW
LFBB BORDEAUX FIR/UIR EMBD TS OBS WI N4230 E00130 - N4230 E00045 - N4345 E00145 - N4330 E00230 TOP FL340 MOV NE 20KT NC=



MET'MAP, la Météo Aéronautique d'un coup d'oeil ! - Copyright ORBIFLY Décembre 2007 - Disclaimer

ORBIFLY MET'MAP TEAM :

Programmation & Développement : Alexandra Zaïnal
Conception & Développement : Baudouin d'Aumeries
Co-Programmation & Développement : Marc-Olivier Méhu
Soutien technique & logistique : Manuel Goepfert

Contact : metmap@orbifly.com




SOURCES & CREDITS :

   NOAA